createdAt,value
2019-01-06T00:00:25.653Z,2.30
2019-01-06T00:01:19.789Z,2.20
2019-01-06T00:02:10.249Z,2.20
2019-01-06T00:03:08.809Z,2.20
2019-01-06T00:04:03.966Z,2.20
2019-01-06T00:05:00.163Z,2.30
2019-01-06T00:06:02.331Z,2.30
2019-01-06T00:07:10.611Z,2.30
2019-01-06T00:08:06.949Z,2.30
2019-01-06T00:09:02.559Z,2.30
2019-01-06T00:10:11.898Z,2.30
2019-01-06T00:11:02.260Z,2.40
2019-01-06T00:11:59.113Z,2.40
2019-01-06T00:12:54.157Z,2.40
2019-01-06T00:13:43.263Z,2.40
2019-01-06T00:14:39.777Z,2.40
2019-01-06T00:15:35.467Z,2.50
2019-01-06T00:16:32.213Z,2.50
2019-01-06T00:17:28.408Z,2.50
2019-01-06T00:18:35.189Z,2.50
2019-01-06T00:19:29.897Z,2.50
2019-01-06T00:20:21.737Z,2.50
2019-01-06T00:21:16.673Z,2.50
2019-01-06T00:22:11.367Z,2.50
2019-01-06T00:23:21.094Z,2.50
2019-01-06T00:24:17.917Z,2.50
2019-01-06T00:25:32.781Z,2.50
2019-01-06T00:26:24.493Z,2.50
2019-01-06T00:27:22.033Z,2.40
2019-01-06T00:28:21.157Z,2.40
2019-01-06T00:29:14.988Z,2.40
2019-01-06T00:30:22.699Z,2.50
2019-01-06T00:31:25.539Z,2.50
2019-01-06T00:32:29.341Z,2.50
2019-01-06T00:33:20.947Z,2.50
2019-01-06T00:34:15.022Z,2.50
2019-01-06T00:35:16.721Z,2.50
2019-01-06T00:36:26.696Z,2.50
2019-01-06T00:37:20.267Z,2.50
2019-01-06T00:38:15.364Z,2.50
2019-01-06T00:39:20.177Z,2.50
2019-01-06T00:40:14.948Z,2.60
2019-01-06T00:41:18.967Z,2.50
2019-01-06T00:42:13.541Z,2.50
2019-01-06T00:43:14.157Z,2.60
2019-01-06T00:44:08.811Z,2.50
2019-01-06T00:45:06.067Z,2.50
2019-01-06T00:46:01.383Z,2.50
2019-01-06T00:47:09.357Z,2.60
2019-01-06T00:48:07.677Z,2.60
2019-01-06T00:49:02.322Z,2.60
2019-01-06T00:49:54.045Z,2.60
2019-01-06T00:50:55.889Z,2.60
2019-01-06T00:51:51.077Z,2.60
2019-01-06T00:52:59.487Z,2.60
2019-01-06T00:54:09.665Z,2.60
2019-01-06T00:55:44.279Z,2.60
2019-01-06T00:56:51.421Z,2.60
2019-01-06T00:57:48.253Z,2.60
2019-01-06T00:58:56.365Z,2.60
2019-01-06T01:00:04.960Z,2.60
2019-01-06T01:01:13.166Z,2.60
2019-01-06T01:02:12.349Z,2.60
2019-01-06T01:03:17.475Z,2.60
2019-01-06T01:04:12.886Z,2.60
2019-01-06T01:05:21.377Z,2.60
2019-01-06T01:06:16.471Z,2.60
2019-01-06T01:07:12.043Z,2.60
2019-01-06T01:08:05.426Z,2.60
2019-01-06T01:09:14.242Z,2.60
2019-01-06T01:10:09.738Z,2.60
2019-01-06T01:11:04.935Z,2.60
2019-01-06T01:11:59.818Z,2.60
2019-01-06T01:12:56.323Z,2.60
2019-01-06T01:13:45.492Z,2.60
2019-01-06T01:14:44.472Z,2.60
2019-01-06T01:15:55.449Z,2.60
2019-01-06T01:17:08.863Z,2.60
2019-01-06T01:18:07.695Z,2.60
2019-01-06T01:18:54.847Z,2.50
2019-01-06T01:19:56.696Z,2.50
2019-01-06T01:20:45.230Z,2.50
2019-01-06T01:21:32.744Z,2.50
2019-01-06T01:22:28.862Z,2.50
2019-01-06T01:23:24.463Z,2.50
2019-01-06T01:24:26.931Z,2.50
2019-01-06T01:25:24.785Z,2.50
2019-01-06T01:26:39.538Z,2.50
2019-01-06T01:27:51.218Z,2.50
2019-01-06T01:29:03.203Z,2.50
2019-01-06T01:29:56.769Z,2.50
2019-01-06T01:30:54.745Z,2.50
2019-01-06T01:31:50.024Z,2.50
2019-01-06T01:32:52.588Z,2.50
2019-01-06T01:34:01.212Z,2.50
2019-01-06T01:35:08.585Z,2.50
2019-01-06T01:36:12.271Z,2.50
2019-01-06T01:37:02.635Z,2.50
2019-01-06T01:38:07.976Z,2.50
2019-01-06T01:39:03.489Z,2.50
2019-01-06T01:40:03.085Z,2.50
2019-01-06T01:40:50.284Z,2.50
2019-01-06T01:42:48.007Z,2.50
2019-01-06T01:43:37.505Z,2.60
2019-01-06T01:44:50.004Z,2.60
2019-01-06T01:45:48.675Z,2.60
2019-01-06T01:46:43.984Z,2.60
2019-01-06T01:47:34.954Z,2.60
2019-01-06T01:48:29.660Z,2.50
2019-01-06T01:49:28.324Z,2.60
2019-01-06T01:50:32.645Z,2.60
2019-01-06T01:51:32.854Z,2.60
2019-01-06T01:52:41.068Z,2.60
2019-01-06T01:53:38.915Z,2.60
2019-01-06T01:54:35.375Z,2.60
2019-01-06T01:55:38.000Z,2.60
2019-01-06T01:56:35.030Z,2.60
2019-01-06T01:57:30.536Z,2.60
2019-01-06T01:58:30.244Z,2.60
2019-01-06T01:59:21.440Z,2.60
2019-01-06T02:00:17.586Z,2.60
2019-01-06T02:01:05.070Z,2.60
2019-01-06T02:02:01.899Z,2.60
2019-01-06T02:02:50.533Z,2.60
2019-01-06T02:03:45.113Z,2.60
2019-01-06T02:04:38.794Z,2.60
2019-01-06T02:05:43.698Z,2.60
2019-01-06T02:06:38.993Z,2.60
2019-01-06T02:07:41.372Z,2.50
2019-01-06T02:08:46.891Z,2.50
2019-01-06T02:09:43.277Z,2.50
2019-01-06T02:10:45.268Z,2.50
2019-01-06T02:11:40.573Z,2.50
2019-01-06T02:12:36.060Z,2.50
2019-01-06T02:13:32.600Z,2.50
2019-01-06T02:14:35.459Z,2.60
2019-01-06T02:15:20.825Z,2.50
2019-01-06T02:16:20.112Z,2.50
2019-01-06T02:17:16.850Z,2.50
2019-01-06T02:18:12.000Z,2.50
2019-01-06T02:19:03.437Z,2.50
2019-01-06T02:20:05.912Z,2.50
2019-01-06T02:21:12.158Z,2.50
2019-01-06T02:22:08.336Z,2.50
2019-01-06T02:23:07.160Z,2.50
2019-01-06T02:24:18.638Z,2.50
2019-01-06T02:25:13.416Z,2.50
2019-01-06T02:26:18.440Z,2.50
2019-01-06T02:27:21.828Z,2.50
2019-01-06T02:28:17.632Z,2.50
2019-01-06T02:29:14.976Z,2.50
2019-01-06T02:30:26.665Z,2.50
2019-01-06T02:31:17.576Z,2.50
2019-01-06T02:32:16.437Z,2.40
2019-01-06T02:33:23.721Z,2.50
2019-01-06T02:34:26.376Z,2.50
2019-01-06T02:35:31.816Z,2.40
2019-01-06T02:36:30.492Z,2.40
2019-01-06T02:37:23.556Z,2.40
2019-01-06T02:38:21.297Z,2.40
2019-01-06T02:39:20.373Z,2.40
2019-01-06T02:40:15.568Z,2.40
2019-01-06T02:41:24.281Z,2.40
2019-01-06T02:42:19.673Z,2.40
2019-01-06T02:43:14.974Z,2.40
2019-01-06T02:44:17.312Z,2.40
2019-01-06T02:45:19.395Z,2.40
2019-01-06T02:46:14.486Z,2.40
2019-01-06T02:47:04.043Z,2.40
2019-01-06T02:47:58.968Z,2.40
2019-01-06T02:49:03.785Z,2.40
2019-01-06T02:49:58.945Z,2.40
2019-01-06T02:50:54.443Z,2.40
2019-01-06T02:51:49.845Z,2.40
2019-01-06T02:52:45.344Z,2.40
2019-01-06T02:53:40.542Z,2.40
2019-01-06T02:54:42.447Z,2.40
2019-01-06T02:55:38.564Z,2.40
2019-01-06T02:56:34.009Z,2.40
2019-01-06T02:57:29.691Z,2.50
2019-01-06T02:58:35.785Z,2.40
2019-01-06T02:59:47.549Z,2.50
2019-01-06T03:00:42.761Z,2.40
2019-01-06T03:01:37.726Z,2.40
2019-01-06T03:02:33.023Z,2.40
2019-01-06T03:03:28.011Z,2.40
2019-01-06T03:04:30.272Z,2.40
2019-01-06T03:05:25.163Z,2.40
2019-01-06T03:06:30.185Z,2.40
2019-01-06T03:07:41.267Z,2.40
2019-01-06T03:08:40.547Z,2.40
2019-01-06T03:09:33.992Z,2.40
2019-01-06T03:10:42.108Z,2.40
2019-01-06T03:11:34.833Z,2.40
2019-01-06T03:12:31.532Z,2.40
2019-01-06T03:13:36.904Z,2.40
2019-01-06T03:14:24.103Z,2.40
2019-01-06T03:15:19.234Z,2.30
2019-01-06T03:16:08.138Z,2.40
2019-01-06T03:16:59.946Z,2.40
2019-01-06T03:17:56.476Z,2.40
2019-01-06T03:18:59.046Z,2.40
2019-01-06T03:20:14.118Z,2.40
2019-01-06T03:21:09.096Z,2.40
2019-01-06T03:22:04.199Z,2.40
2019-01-06T03:23:09.733Z,2.30
2019-01-06T03:24:14.040Z,2.30
2019-01-06T03:25:25.392Z,2.30
2019-01-06T03:26:25.117Z,2.30
2019-01-06T03:27:24.228Z,2.30
2019-01-06T03:28:12.512Z,2.30
2019-01-06T03:29:17.760Z,2.30
2019-01-06T03:30:26.371Z,2.30
2019-01-06T03:31:28.525Z,2.30
2019-01-06T03:32:30.669Z,2.30
2019-01-06T03:33:33.970Z,2.30
2019-01-06T03:34:33.059Z,2.30
2019-01-06T03:35:38.054Z,2.30
2019-01-06T03:36:33.269Z,2.30
2019-01-06T03:37:21.202Z,2.30
2019-01-06T03:38:28.278Z,2.30
2019-01-06T03:39:31.857Z,2.30
2019-01-06T03:40:27.061Z,2.30
2019-01-06T03:41:16.812Z,2.30
2019-01-06T03:42:12.530Z,2.30
2019-01-06T03:43:20.756Z,2.30
2019-01-06T03:44:15.822Z,2.30
2019-01-06T03:45:08.652Z,2.30
2019-01-06T03:46:04.460Z,2.30
2019-01-06T03:47:00.824Z,2.30
2019-01-06T03:47:56.180Z,2.30
2019-01-06T03:48:51.476Z,2.30
2019-01-06T03:49:46.878Z,2.30
2019-01-06T03:50:39.817Z,2.30
2019-01-06T03:51:39.008Z,2.30
2019-01-06T03:52:35.221Z,2.30
2019-01-06T03:53:31.265Z,2.30
2019-01-06T03:54:35.138Z,2.30
2019-01-06T03:55:31.645Z,2.20
2019-01-06T03:56:34.739Z,2.30
2019-01-06T03:57:30.982Z,2.30
2019-01-06T03:58:19.568Z,2.30
2019-01-06T03:59:36.700Z,2.30
2019-01-06T04:00:31.954Z,2.30
2019-01-06T04:01:22.481Z,2.30
2019-01-06T04:02:25.152Z,2.30
2019-01-06T04:03:18.506Z,2.30
2019-01-06T04:04:13.912Z,2.30
2019-01-06T04:05:08.799Z,2.30
2019-01-06T04:06:06.661Z,2.30
2019-01-06T04:07:06.139Z,2.30
2019-01-06T04:08:02.674Z,2.30
2019-01-06T04:08:57.252Z,2.30
2019-01-06T04:09:52.233Z,2.30
2019-01-06T04:10:43.544Z,2.30
2019-01-06T04:11:42.825Z,2.30
2019-01-06T04:12:49.590Z,2.30
2019-01-06T04:13:57.681Z,2.30
2019-01-06T04:14:56.674Z,2.30
2019-01-06T04:15:44.674Z,2.30
2019-01-06T04:16:39.889Z,2.30
2019-01-06T04:17:36.333Z,2.30
2019-01-06T04:18:31.607Z,2.30
2019-01-06T04:19:29.461Z,2.30
2019-01-06T04:20:29.405Z,2.30
2019-01-06T04:21:26.204Z,2.30
2019-01-06T04:22:23.214Z,2.30
2019-01-06T04:23:22.249Z,2.30
2019-01-06T04:24:16.464Z,2.30
2019-01-06T04:25:11.278Z,2.30
2019-01-06T04:26:06.369Z,2.30
2019-01-06T04:27:12.110Z,2.30
2019-01-06T04:28:07.737Z,2.40
2019-01-06T04:29:07.416Z,2.40
2019-01-06T04:30:18.600Z,2.30
2019-01-06T04:31:13.878Z,2.40
2019-01-06T04:32:04.056Z,2.30
2019-01-06T04:32:56.898Z,2.40
2019-01-06T04:34:00.295Z,2.40
2019-01-06T04:34:55.388Z,2.40
2019-01-06T04:36:04.121Z,2.40
2019-01-06T04:37:01.017Z,2.40
2019-01-06T04:37:56.048Z,2.40
2019-01-06T04:39:01.749Z,2.40
2019-01-06T04:39:58.272Z,2.40
2019-01-06T04:40:54.800Z,2.40
2019-01-06T04:42:00.132Z,2.40
2019-01-06T04:42:50.831Z,2.40
2019-01-06T04:43:45.706Z,2.40
2019-01-06T04:44:35.682Z,2.40
2019-01-06T04:45:38.032Z,2.40
2019-01-06T04:46:23.508Z,2.40
2019-01-06T04:47:18.289Z,2.40
2019-01-06T04:48:14.012Z,2.40
2019-01-06T04:49:09.988Z,2.40
2019-01-06T04:50:09.301Z,2.40
2019-01-06T04:50:58.981Z,2.40
2019-01-06T04:51:55.808Z,2.40
2019-01-06T04:52:55.496Z,2.40
2019-01-06T04:53:52.255Z,2.40
2019-01-06T04:54:52.137Z,2.40
2019-01-06T04:55:48.861Z,2.40
2019-01-06T04:56:43.719Z,2.40
2019-01-06T04:57:49.489Z,2.40
2019-01-06T04:58:40.905Z,2.40
2019-01-06T04:59:43.361Z,2.40
2019-01-06T05:00:38.428Z,2.40
2019-01-06T05:01:42.258Z,2.50
2019-01-06T05:02:43.850Z,2.50
2019-01-06T05:03:41.213Z,2.50
2019-01-06T05:04:37.725Z,2.40
2019-01-06T05:05:46.065Z,2.40
2019-01-06T05:06:41.001Z,2.40
2019-01-06T05:07:34.913Z,2.40
2019-01-06T05:08:29.702Z,2.40
2019-01-06T05:09:34.007Z,2.40
2019-01-06T05:10:29.591Z,2.40
2019-01-06T05:11:28.696Z,2.40
2019-01-06T05:12:34.338Z,2.40
2019-01-06T05:13:21.222Z,2.40
2019-01-06T05:14:16.636Z,2.40
2019-01-06T05:15:19.023Z,2.40
2019-01-06T05:16:24.738Z,2.40
2019-01-06T05:17:29.963Z,2.40
2019-01-06T05:18:38.571Z,2.40
2019-01-06T05:19:34.496Z,2.40
2019-01-06T05:20:35.618Z,2.40
2019-01-06T05:21:42.995Z,2.40
2019-01-06T05:22:42.496Z,2.40
2019-01-06T05:23:43.126Z,2.40
2019-01-06T05:24:47.934Z,2.40
2019-01-06T05:25:42.619Z,2.40
2019-01-06T05:26:39.441Z,2.40
2019-01-06T05:27:51.383Z,2.40
2019-01-06T05:28:46.745Z,2.40
2019-01-06T05:29:42.851Z,2.40
2019-01-06T05:30:40.297Z,2.40
2019-01-06T05:31:35.296Z,2.40
2019-01-06T05:32:34.492Z,2.40
2019-01-06T05:33:36.223Z,2.40
2019-01-06T05:34:31.437Z,2.40
2019-01-06T05:35:36.365Z,2.40
2019-01-06T05:36:35.343Z,2.40
2019-01-06T05:37:47.099Z,2.40
2019-01-06T05:38:42.393Z,2.40
2019-01-06T05:39:38.001Z,2.30
2019-01-06T05:40:37.395Z,2.40
2019-01-06T05:41:32.693Z,2.30
2019-01-06T05:42:37.096Z,2.30
2019-01-06T05:43:48.834Z,2.30
2019-01-06T05:44:54.942Z,2.30
2019-01-06T05:45:51.880Z,2.30
2019-01-06T05:46:46.917Z,2.30
2019-01-06T05:47:42.151Z,2.30
2019-01-06T05:48:37.307Z,2.30
2019-01-06T05:49:36.438Z,2.30
2019-01-06T05:50:51.192Z,2.20
2019-01-06T05:51:59.480Z,2.20
2019-01-06T05:52:59.106Z,2.20
2019-01-06T05:53:53.987Z,2.20
2019-01-06T05:54:53.233Z,2.30
2019-01-06T05:55:38.432Z,2.30
2019-01-06T05:56:36.683Z,2.30
2019-01-06T05:57:40.685Z,2.30
2019-01-06T05:58:40.077Z,2.30
2019-01-06T05:59:29.423Z,2.30
2019-01-06T06:00:37.827Z,2.30
2019-01-06T06:01:33.063Z,2.40
2019-01-06T06:02:34.181Z,2.40
2019-01-06T06:03:21.771Z,2.40
2019-01-06T06:04:20.262Z,2.40
2019-01-06T06:05:26.084Z,2.40
2019-01-06T06:06:22.530Z,2.30
2019-01-06T06:07:17.827Z,2.40
2019-01-06T06:08:20.607Z,2.30
2019-01-06T06:09:19.679Z,2.30
2019-01-06T06:10:11.085Z,2.40
2019-01-06T06:11:09.250Z,2.40
2019-01-06T06:12:07.432Z,2.40
2019-01-06T06:13:09.881Z,2.40
2019-01-06T06:14:05.591Z,2.40
2019-01-06T06:15:06.526Z,2.40
2019-01-06T06:16:15.222Z,2.40
2019-01-06T06:17:36.361Z,2.40
2019-01-06T06:18:34.293Z,2.40
2019-01-06T06:19:52.214Z,2.40
2019-01-06T06:20:51.823Z,2.40
2019-01-06T06:21:47.108Z,2.40
2019-01-06T06:22:46.295Z,2.30
2019-01-06T06:23:54.601Z,2.30
2019-01-06T06:25:03.346Z,2.30
2019-01-06T06:25:59.115Z,2.30
2019-01-06T06:27:13.819Z,2.30
2019-01-06T06:28:09.399Z,2.20
2019-01-06T06:29:05.297Z,2.20
2019-01-06T06:30:12.140Z,2.20
2019-01-06T06:31:07.039Z,2.20
2019-01-06T06:32:05.908Z,2.20
2019-01-06T06:33:02.647Z,2.10
2019-01-06T06:33:52.442Z,2.10
2019-01-06T06:35:07.480Z,2.00
2019-01-06T06:36:04.128Z,2.00
2019-01-06T06:37:03.393Z,1.90
2019-01-06T06:38:02.315Z,1.90
2019-01-06T06:38:53.801Z,1.90
2019-01-06T06:39:51.734Z,1.80
2019-01-06T06:40:46.941Z,1.80
2019-01-06T06:41:34.136Z,1.80
2019-01-06T06:42:23.870Z,1.80
2019-01-06T06:43:30.149Z,1.80
2019-01-06T06:44:26.527Z,1.80
2019-01-06T06:45:31.291Z,1.80
2019-01-06T06:46:24.745Z,1.80
2019-01-06T06:47:13.982Z,1.70
2019-01-06T06:48:10.433Z,1.70
2019-01-06T06:49:12.891Z,1.70
2019-01-06T06:50:27.699Z,1.70
2019-01-06T06:51:23.047Z,1.70
2019-01-06T06:52:18.755Z,1.60
2019-01-06T06:53:11.075Z,1.60
2019-01-06T06:54:05.855Z,1.60
2019-01-06T06:55:02.901Z,1.60
2019-01-06T06:55:58.289Z,1.60
2019-01-06T06:57:05.313Z,1.50
2019-01-06T06:58:38.043Z,1.50
2019-01-06T06:59:33.451Z,1.50
2019-01-06T07:00:49.639Z,1.40
2019-01-06T07:02:46.975Z,1.40
2019-01-06T07:03:50.863Z,1.40
2019-01-06T07:04:48.452Z,1.40
2019-01-06T07:05:33.535Z,1.40
2019-01-06T07:06:24.039Z,1.40
2019-01-06T07:07:19.063Z,1.40
2019-01-06T07:08:15.575Z,1.40
2019-01-06T07:09:11.383Z,1.40
2019-01-06T07:10:03.814Z,1.30
2019-01-06T07:10:59.382Z,1.30
2019-01-06T07:12:14.071Z,1.30
2019-01-06T07:13:09.361Z,1.30
2019-01-06T07:14:15.109Z,1.30
2019-01-06T07:15:04.678Z,1.30
2019-01-06T07:16:00.783Z,1.30
2019-01-06T07:17:41.650Z,1.30
2019-01-06T07:18:43.503Z,1.30
2019-01-06T07:19:42.130Z,1.30
2019-01-06T07:20:46.795Z,1.30
2019-01-06T07:21:49.353Z,1.20
2019-01-06T07:22:54.073Z,1.20
2019-01-06T07:23:59.607Z,1.20
2019-01-06T07:25:14.667Z,1.20
2019-01-06T07:26:09.667Z,1.10
2019-01-06T07:27:22.402Z,1.10
2019-01-06T07:28:28.708Z,1.10
2019-01-06T07:29:25.140Z,1.10
2019-01-06T07:30:22.218Z,1.10
2019-01-06T07:31:21.985Z,1.10
2019-01-06T07:32:21.298Z,1.00
2019-01-06T07:33:24.144Z,1.00
2019-01-06T07:34:26.021Z,1.00
2019-01-06T07:35:21.404Z,1.00
2019-01-06T07:36:13.110Z,1.00
2019-01-06T07:37:24.996Z,1.00
2019-01-06T07:38:12.412Z,1.00
2019-01-06T07:39:07.498Z,1.00
2019-01-06T07:40:02.696Z,1.00
2019-01-06T07:40:59.342Z,1.00
2019-01-06T07:41:58.944Z,1.00
2019-01-06T07:42:55.852Z,1.00
2019-01-06T07:43:51.860Z,1.00
2019-01-06T07:44:37.992Z,1.00
2019-01-06T07:46:24.239Z,1.10
2019-01-06T07:47:18.612Z,1.10
2019-01-06T07:48:27.124Z,1.10
2019-01-06T07:49:22.315Z,1.10
2019-01-06T07:50:14.435Z,1.10
2019-01-06T07:51:19.978Z,1.10
2019-01-06T07:52:08.693Z,1.10
2019-01-06T07:53:08.223Z,1.20
2019-01-06T07:54:02.832Z,1.20
2019-01-06T07:55:17.230Z,1.20
2019-01-06T07:56:12.570Z,1.20
2019-01-06T07:57:19.709Z,1.20
2019-01-06T07:58:19.240Z,1.20
2019-01-06T07:59:08.657Z,1.20
2019-01-06T08:00:20.023Z,1.20
2019-01-06T08:01:21.162Z,1.20
2019-01-06T08:02:21.273Z,1.20
2019-01-06T08:03:21.402Z,1.20
2019-01-06T08:04:22.820Z,1.30
2019-01-06T08:05:17.796Z,1.30
2019-01-06T08:06:13.025Z,1.30
2019-01-06T08:07:08.507Z,1.40
2019-01-06T08:07:56.324Z,1.40
2019-01-06T08:09:05.558Z,1.50
2019-01-06T08:10:03.928Z,1.50
2019-01-06T08:11:05.984Z,1.50
2019-01-06T08:12:05.066Z,1.60
2019-01-06T08:13:01.490Z,1.60
2019-01-06T08:13:56.520Z,1.60
2019-01-06T08:14:59.284Z,1.60
2019-01-06T08:16:05.092Z,1.70
2019-01-06T08:17:04.680Z,1.70
2019-01-06T08:18:10.088Z,1.70
2019-01-06T08:19:04.089Z,1.70
2019-01-06T08:20:08.924Z,1.70
2019-01-06T08:21:03.382Z,1.70
2019-01-06T08:22:09.840Z,1.80
2019-01-06T08:23:06.568Z,1.80
2019-01-06T08:24:01.968Z,1.80
2019-01-06T08:24:57.212Z,1.80
2019-01-06T08:25:54.023Z,1.90
2019-01-06T08:26:49.861Z,1.90
2019-01-06T08:27:43.460Z,1.90
2019-01-06T08:28:38.840Z,2.00
2019-01-06T08:29:36.205Z,2.00
2019-01-06T08:30:31.813Z,2.10
2019-01-06T08:31:30.794Z,2.10
2019-01-06T08:32:15.846Z,2.10
2019-01-06T08:33:27.366Z,2.10
2019-01-06T08:34:39.120Z,2.20
2019-01-06T08:35:45.668Z,2.20
2019-01-06T08:36:40.474Z,2.20
2019-01-06T08:37:35.868Z,2.30
2019-01-06T08:38:31.406Z,2.30
2019-01-06T08:39:28.300Z,2.30
2019-01-06T08:40:23.458Z,2.30
2019-01-06T08:41:15.570Z,2.30
2019-01-06T08:42:18.795Z,2.30
2019-01-06T08:43:21.260Z,2.30
2019-01-06T08:44:16.801Z,2.30
2019-01-06T08:45:11.778Z,2.40
2019-01-06T08:46:07.256Z,2.30
2019-01-06T08:47:21.684Z,2.30
2019-01-06T08:48:16.497Z,2.40
2019-01-06T08:49:20.264Z,2.40
2019-01-06T08:50:26.668Z,2.40
2019-01-06T08:51:32.195Z,2.40
2019-01-06T08:52:40.261Z,2.50
2019-01-06T08:53:39.662Z,2.50
2019-01-06T08:54:30.265Z,2.50
2019-01-06T08:55:29.840Z,2.60
2019-01-06T08:56:41.828Z,2.60
2019-01-06T08:57:53.407Z,2.60
2019-01-06T08:58:49.503Z,2.60
2019-01-06T08:59:51.525Z,2.60
2019-01-06T09:00:54.134Z,2.70
2019-01-06T09:01:56.744Z,2.70
2019-01-06T09:02:52.004Z,2.70
2019-01-06T09:03:57.922Z,2.70
2019-01-06T09:04:52.735Z,2.80
2019-01-06T09:05:48.166Z,2.80
2019-01-06T09:06:43.335Z,2.80
2019-01-06T09:07:38.830Z,2.80
2019-01-06T09:08:35.360Z,2.80
2019-01-06T09:09:30.222Z,2.90
2019-01-06T09:10:24.596Z,2.90
2019-01-06T09:11:27.488Z,2.80
2019-01-06T09:12:22.980Z,2.80
2019-01-06T09:13:15.604Z,2.80
2019-01-06T09:14:17.592Z,2.80
2019-01-06T09:15:19.734Z,2.70
2019-01-06T09:16:34.713Z,2.70
2019-01-06T09:17:33.878Z,2.70
2019-01-06T09:18:40.028Z,2.70
2019-01-06T09:19:50.493Z,2.60
2019-01-06T09:20:58.735Z,2.60
2019-01-06T09:21:53.672Z,2.50
2019-01-06T09:22:48.840Z,2.40
2019-01-06T09:23:48.273Z,2.40
2019-01-06T09:25:00.754Z,2.40
2019-01-06T09:25:59.725Z,2.40
2019-01-06T09:27:14.491Z,2.40
2019-01-06T09:28:09.606Z,2.30
2019-01-06T09:29:04.642Z,2.30
2019-01-06T09:30:01.521Z,2.30
2019-01-06T09:30:57.872Z,2.30
2019-01-06T09:32:02.263Z,2.30
2019-01-06T09:33:00.211Z,2.30
2019-01-06T09:34:02.588Z,2.30
2019-01-06T09:35:17.205Z,2.40
2019-01-06T09:36:12.657Z,2.40
2019-01-06T09:37:21.946Z,2.40
2019-01-06T09:38:17.352Z,2.40
2019-01-06T09:39:19.708Z,2.40
2019-01-06T09:40:22.171Z,2.50
2019-01-06T09:41:21.260Z,2.60
2019-01-06T09:42:32.453Z,2.60
2019-01-06T09:43:31.481Z,2.60
2019-01-06T09:44:27.208Z,2.70
2019-01-06T09:45:36.030Z,2.80
2019-01-06T09:46:32.452Z,2.80
2019-01-06T09:47:28.248Z,2.90
2019-01-06T09:48:32.672Z,2.90
2019-01-06T09:49:41.501Z,2.90
2019-01-06T09:50:44.594Z,2.90
2019-01-06T09:51:49.512Z,3.00
2019-01-06T09:52:48.877Z,3.00
2019-01-06T09:53:43.692Z,3.00
2019-01-06T09:54:38.065Z,3.10
2019-01-06T09:55:44.997Z,3.10
2019-01-06T09:56:41.624Z,3.10
2019-01-06T09:57:31.084Z,3.10
2019-01-06T09:58:26.185Z,3.10
2019-01-06T09:59:23.641Z,3.20
2019-01-06T10:00:18.945Z,3.20
2019-01-06T10:01:18.471Z,3.20
2019-01-06T10:02:13.535Z,3.20
2019-01-06T10:03:10.028Z,3.20
2019-01-06T10:04:15.380Z,3.20
2019-01-06T10:05:10.756Z,3.30
2019-01-06T10:06:08.321Z,3.30
2019-01-06T10:07:22.508Z,3.30
2019-01-06T10:08:27.240Z,3.40
2019-01-06T10:09:35.169Z,3.50
2019-01-06T10:10:41.225Z,3.50
2019-01-06T10:11:38.111Z,3.50
2019-01-06T10:12:35.186Z,3.50
2019-01-06T10:13:30.389Z,3.50
2019-01-06T10:14:29.039Z,3.60
2019-01-06T10:15:25.805Z,3.50
2019-01-06T10:16:25.282Z,3.40
2019-01-06T10:17:20.579Z,3.40
2019-01-06T10:18:14.155Z,3.40
2019-01-06T10:19:09.028Z,3.40
2019-01-06T10:20:08.517Z,3.40
2019-01-06T10:21:16.680Z,3.40
2019-01-06T10:22:06.397Z,3.40
2019-01-06T10:23:19.143Z,3.40
2019-01-06T10:24:27.407Z,3.40
2019-01-06T10:25:31.396Z,3.40
2019-01-06T10:26:23.210Z,3.30
2019-01-06T10:27:21.369Z,3.30
2019-01-06T10:28:09.327Z,3.40
2019-01-06T10:28:59.851Z,3.40
2019-01-06T10:30:04.747Z,3.40
2019-01-06T10:30:59.989Z,3.50
2019-01-06T10:32:06.433Z,3.50
2019-01-06T10:33:06.681Z,3.60
2019-01-06T10:34:08.928Z,3.60
2019-01-06T10:35:08.317Z,3.70
2019-01-06T10:36:09.839Z,3.80
2019-01-06T10:37:07.177Z,3.80
2019-01-06T10:38:12.433Z,3.90
2019-01-06T10:39:08.902Z,3.90
2019-01-06T10:40:04.249Z,4.00
2019-01-06T10:41:00.977Z,4.10
2019-01-06T10:41:55.501Z,4.10
2019-01-06T10:42:50.649Z,4.00
2019-01-06T10:43:49.434Z,4.00
2019-01-06T10:44:54.873Z,4.00
2019-01-06T10:45:54.153Z,4.00
2019-01-06T10:46:58.259Z,3.90
2019-01-06T10:47:53.763Z,3.90
2019-01-06T10:48:57.676Z,3.80
2019-01-06T10:50:09.654Z,3.80
2019-01-06T10:51:12.210Z,3.80
2019-01-06T10:52:05.255Z,3.80
2019-01-06T10:53:04.334Z,3.80
2019-01-06T10:54:01.277Z,3.80
2019-01-06T10:55:03.837Z,3.80
2019-01-06T10:56:00.778Z,3.80
2019-01-06T10:57:03.034Z,3.80
2019-01-06T10:57:59.553Z,3.80
2019-01-06T10:58:52.527Z,3.70
2019-01-06T10:59:55.065Z,3.70
2019-01-06T11:01:06.317Z,3.70
2019-01-06T11:02:01.431Z,3.80
2019-01-06T11:02:56.935Z,3.70
2019-01-06T11:03:56.013Z,3.70
2019-01-06T11:05:01.547Z,3.70
2019-01-06T11:05:58.387Z,3.60
2019-01-06T11:06:57.273Z,3.60
2019-01-06T11:08:05.978Z,3.60
2019-01-06T11:09:02.906Z,3.60
2019-01-06T11:09:59.535Z,3.70
2019-01-06T11:10:57.893Z,3.70
2019-01-06T11:12:12.865Z,3.80
2019-01-06T11:13:08.673Z,3.80
2019-01-06T11:14:03.307Z,3.80
2019-01-06T11:14:57.831Z,3.90
2019-01-06T11:15:51.075Z,3.90
2019-01-06T11:16:45.963Z,4.00
2019-01-06T11:17:40.750Z,4.00
2019-01-06T11:18:37.997Z,4.10
2019-01-06T11:19:49.480Z,4.10
2019-01-06T11:20:39.653Z,4.20
2019-01-06T11:21:35.135Z,4.10
2019-01-06T11:22:37.941Z,4.10
2019-01-06T11:23:40.279Z,4.10
2019-01-06T11:24:30.450Z,4.10
2019-01-06T11:25:25.857Z,4.00
2019-01-06T11:26:19.715Z,4.00
2019-01-06T11:27:31.597Z,3.90
2019-01-06T11:28:46.568Z,3.90
2019-01-06T11:29:41.459Z,3.80
2019-01-06T11:30:46.571Z,3.80
2019-01-06T11:31:47.198Z,3.80
2019-01-06T11:32:45.767Z,3.80
2019-01-06T11:33:41.291Z,3.80
2019-01-06T11:34:38.306Z,3.80
2019-01-06T11:35:24.587Z,3.80
2019-01-06T11:36:33.920Z,3.80
2019-01-06T11:37:30.154Z,3.80
2019-01-06T11:38:36.804Z,3.80
2019-01-06T11:39:35.823Z,3.80
2019-01-06T11:40:37.956Z,3.80
2019-01-06T11:41:41.385Z,3.90
2019-01-06T11:42:37.895Z,4.00
2019-01-06T11:43:29.159Z,4.00
2019-01-06T11:44:22.513Z,4.10
2019-01-06T11:45:17.265Z,4.10
2019-01-06T11:46:28.352Z,4.10
2019-01-06T11:47:30.800Z,4.20
2019-01-06T11:48:44.751Z,4.30
2019-01-06T11:49:49.769Z,4.40
2019-01-06T11:51:01.561Z,4.50
2019-01-06T11:51:51.015Z,4.60
2019-01-06T11:52:46.107Z,4.70
2019-01-06T11:53:45.605Z,4.70
2019-01-06T11:54:59.439Z,4.70
2019-01-06T11:55:51.148Z,4.70
2019-01-06T11:56:56.893Z,4.70
2019-01-06T11:57:56.293Z,4.70
2019-01-06T11:59:00.401Z,4.80
2019-01-06T11:59:56.256Z,4.70
2019-01-06T12:00:52.464Z,4.70
2019-01-06T12:01:43.831Z,4.80
2019-01-06T12:02:43.010Z,4.70
2019-01-06T12:03:38.405Z,4.70
2019-01-06T12:04:33.790Z,4.80
2019-01-06T12:05:35.807Z,4.70
2019-01-06T12:06:34.875Z,4.70
2019-01-06T12:07:33.766Z,4.60
2019-01-06T12:08:30.650Z,4.50
2019-01-06T12:09:24.234Z,4.40
2019-01-06T12:10:20.170Z,4.20
2019-01-06T12:11:17.770Z,4.20
2019-01-06T12:12:20.357Z,4.10
2019-01-06T12:13:35.142Z,4.00
2019-01-06T12:14:34.517Z,4.00
2019-01-06T12:15:26.014Z,4.00
2019-01-06T12:16:21.513Z,4.10
2019-01-06T12:17:17.229Z,4.20
2019-01-06T12:18:32.159Z,4.20
2019-01-06T12:19:33.876Z,4.30
2019-01-06T12:20:19.596Z,4.40
2019-01-06T12:21:08.220Z,4.40
2019-01-06T12:22:03.306Z,4.40
2019-01-06T12:23:02.813Z,4.40
2019-01-06T12:23:57.678Z,4.40
2019-01-06T12:25:04.197Z,4.40
2019-01-06T12:25:59.030Z,4.40
2019-01-06T12:27:07.978Z,4.40
2019-01-06T12:28:03.350Z,4.40
2019-01-06T12:28:58.662Z,4.30
2019-01-06T12:29:57.834Z,4.30
2019-01-06T12:30:52.790Z,4.30
2019-01-06T12:32:07.341Z,4.30
2019-01-06T12:33:02.162Z,4.40
2019-01-06T12:34:01.148Z,4.40
2019-01-06T12:34:56.020Z,4.40
2019-01-06T12:35:51.426Z,4.40
2019-01-06T12:36:57.875Z,4.50
2019-01-06T12:38:07.020Z,4.40
2019-01-06T12:39:06.205Z,4.40
2019-01-06T12:40:03.943Z,4.30
2019-01-06T12:41:00.479Z,4.30
2019-01-06T12:41:55.880Z,4.40
2019-01-06T12:42:50.606Z,4.40
2019-01-06T12:43:45.741Z,4.40
2019-01-06T12:44:44.641Z,4.40
2019-01-06T12:45:36.430Z,4.50
2019-01-06T12:46:45.149Z,4.50
2019-01-06T12:47:59.612Z,4.50
2019-01-06T12:48:54.449Z,4.50
2019-01-06T12:49:49.669Z,4.60
2019-01-06T12:50:40.357Z,4.60
2019-01-06T12:51:43.473Z,4.60
2019-01-06T12:52:38.021Z,4.50
2019-01-06T12:53:45.688Z,4.50
2019-01-06T12:54:34.139Z,4.50
2019-01-06T12:55:38.980Z,4.50
2019-01-06T12:56:38.102Z,4.50
2019-01-06T12:57:33.330Z,4.40
2019-01-06T12:58:36.318Z,4.40
2019-01-06T12:59:31.480Z,4.40
2019-01-06T13:00:36.678Z,4.30
2019-01-06T13:01:32.072Z,4.30
2019-01-06T13:02:37.818Z,4.30
2019-01-06T13:03:33.191Z,4.30
2019-01-06T13:04:29.142Z,4.30
2019-01-06T13:05:26.167Z,4.20
2019-01-06T13:06:37.503Z,4.20
2019-01-06T13:07:29.412Z,4.20
2019-01-06T13:08:24.195Z,4.20
2019-01-06T13:09:19.156Z,4.20
2019-01-06T13:10:32.848Z,4.10
2019-01-06T13:11:35.988Z,4.10
2019-01-06T13:12:36.328Z,4.10